Gillette, WY (82716)

12:42 PM MST on February 23, 2017 (GMT -0700)
Lakeland Hills | | Change Station
Active Advisory: Winter Weather Advisory

Elev 4580 ft 44.30 °N, 105.48 °W | Updated 1 second ago

Overcast
Overcast
27.7 °F
Feels Like 17 °F
N
12.5
Wind Variable Wind from ENE
Gusts 16.8 mph

Today
High -- | Low -- °F
--% Chance of Precip.
Yesterday
High -- | Low -- °F
Precip. -- in
Pressure 29.81 in
Visibility 3.0 miles
Clouds Mostly Cloudy 1300 ft
Overcast 1900 ft
Windchill 17 °F
Dew Point 25 °F
Humidity 89%
Rainfall 0.00 in
Snow Depth Not available.
6:48 AM 5:42 PM
Waning Crescent, 9% visible
SPECI KGCC 231906Z AUTO 03014KT 3SM BR BKN013 OVC019 M03/M04 A2981 RMK AO2 T10281044 $
Pressure 29.81 in
Visibility 3.0 miles
Clouds Mostly Cloudy 1300 ft
Overcast 1900 ft
Windchill 17 °F
Dew Point 25 °F
Humidity 89%
Rainfall 0.00 in
Snow Depth Not available.
6:48 AM 5:42 PM
Waning Crescent, 9% visible
SPECI KGCC 231906Z AUTO 03014KT 3SM BR BKN013 OVC019 M03/M04 A2981 RMK AO2 T10281044 $

Get Your Daily Forecast Email!

Thanks for signing up!

Be on the lookout for a verification email in your inbox.

You'll start receiving the daily forecast at 8 AM.

×

10-Day Weather Forecast

Almanac

Astronomy

Feb. 23, 2017 Rise Set
Actual Time
Civil Twilight
Nautical Twilight
Astronomical Twilight
Moon
Length of Visible Light
Length of Day
Tomorrow will be .
, % of the Moon is Illuminated

Today's Extremes

State Highs State Lows

Community

WunderPhotos

Upload Photos

1,962,540 photos uploaded!

WunderBlog® & News

Nearby

Air Quality

  Air Quality AQ Index Pollutant
Not available.

Snow Depth

Station Depth Elevation

Earthquake Activity

City Distance Mag. Time & Date
Minimum magnitude displayed is 2.5.

Coastal Water Temperatures

Place Temperature

Stations

Nearby Weather Stations

Station Location Temp. Windchill Dew Point Humidity Wind Precip. Elev Updated Type
                   

Watches & Warnings

Winter Weather Advisory
Issued: 12:22 PM MST Feb. 23, 2017 – National Weather Service

... Winter Weather Advisory remains in effect until 5 am MST
Friday...

* snow will develop this morning and continue through this
evening, before tapering off late tonight.

* Additional snow accumulations of 1 to 3 inches are expected.

* Look for reduced visibilities at times.

* Plan on slippery Road conditions.

Precautionary/preparedness actions...

A Winter Weather Advisory for snow means periods of snow will
cause primarily travel difficulties. Be prepared for snow covered
roads and limited visibilities... and use caution while driving.
The latest Road conditions for the state you are calling from can
be obtained by calling 5 1 1.